Hauptseite
METAR-TAF:

METAR-TAF

Flughäfen :

NATO-Flugplatz Geilenkirchen

Geilenkirchen, Deutschland

Breite: 50-57-39N, Länge: 006-2-33E, Höhe: 90 m

Beobachtung

Neuester Wetterbericht von vor 19 Minuten, um 18:50 UTC
Wind 6 kt aus Südwest
Temperatur 18°C
Luftfeuchtigkeit 77%
Luftdruck 1016 hPa
Sichtweite 10 km oder mehr
keine Wolken unter 1500 m und keine Kumulonimbus oder Gewitterwolken

METAR: ETNG 191850Z 22006KT CAVOK 18/14 Q1016

Zeit: 21:09 (19:09 UTC)

Prognose

Neuester Wetterbericht von vor 2 Stunden und 9 Minuten, um 17:00 UTC
Gültige Prognose vom 19 um 18 UTC bis 20 um 09 UTC
Wind 10 kt aus Südwest, Böen bis zu 18 kt
Sichtweite 10 km oder mehr
keine Wolken unter 1500 m und keine Kumulonimbus oder Gewitterwolken
Übergehend zu
vom 20 um 06 UTC bis 20 um 08 UTC
Wind 15 kt aus Süd/Südwest, Böen bis zu 28 kt

TAF: ETNG 191700Z 1918/2009 22010G18KT CAVOK BECMG 2006/2008 21015G28KT

Wetterbeobachtungen und Prognosen von mehr als 4000 Flughäfen (METAR und TAF Bericht).

Die verfügbaren Stationen werden durch gelbe und rote Markierungen auf der Karte dargestellt.

Führen Sie die Maus auf sie, um den Namen der Station zu sehen.

Darauf klicken, um die Beobachtung von Wetterbeobachtungen und Prognosen zu sehen.

Um die Karte zu ändern : klicken Sie auf den grünen Tasten mit einem schwarzen Kreuz Zum Vergrößern, auf den grünen Button mit einem Gedankenstrich zu verkleinern, oder auf die grünen Pfeile für benachbarte Karten.


METAR-TAF: